Hovedside
METAR-TAF:

METAR-TAF

Lufthavner :

Sunan internasjonale lufthavn

Pyongyang, Nord-Korea

breddegrad: 39-02N, lengdegrad: 125-47E, høyde over havet: 36 m

METAR: fraværende

Tid: 07:58 (22:58 UTC)

Varsel

Denne rapporten ble laget for 18 timer og 18 minutter siden, klokken 04:40 UTC
Varsel gyldig fra 14. klokken 06 UTC til 15. klokken 06 UTC
Vind 10 kt fra Vest-sørvest
Sikt 10 km eller mer
Brutte skyer i en høyde av 2000 ft
Få skyer i en høyde av 13300 ft
Midlertidig
fra 14. klokken 18 UTC til 14. klokken 24 UTC
Sikt: 2000 m
dis

TAF: ZKPY 140440Z 1406/1506 24005MPS 9999 BKN020 FEW133 TX30/1406Z TN25/1421Z TEMPO 1418/1424 2000 BR

Værobservasjoner og værvarsel for over 4000 flyplasser (METAR- og TAF-rapporter).

Tilgjengelige stasjoner er representert av de røde og gule prikkene på kartet.

Hold musepekeren over prikken for å se navnet på stasjonen.

Klikk så for å se værobservasjoner og -varsler.

For å forandre kartet kan du klikke på den grønne knappen med svart kryss for å zoome inn, på den grønne knappen med strek for å zoome ut, eller på de grønne pilene for å se tilstøtende kart.


METAR-TAF: